createdAt,value
2022-11-04T00:00:05.576Z,990
2022-11-04T00:03:05.453Z,990
2022-11-04T00:06:05.187Z,990
2022-11-04T00:09:05.237Z,990
2022-11-04T00:12:05.232Z,990
2022-11-04T00:15:05.157Z,990
2022-11-04T00:18:05.185Z,990
2022-11-04T00:21:05.087Z,990
2022-11-04T00:24:05.187Z,990
2022-11-04T00:27:05.161Z,990
2022-11-04T00:30:05.245Z,990
2022-11-04T00:33:05.152Z,990
2022-11-04T00:36:05.160Z,990
2022-11-04T00:39:05.201Z,990
2022-11-04T00:42:05.214Z,990
2022-11-04T00:45:05.130Z,990
2022-11-04T00:48:05.332Z,990
2022-11-04T00:51:05.379Z,990
2022-11-04T00:54:05.147Z,990
2022-11-04T00:57:05.115Z,990
2022-11-04T01:00:05.200Z,989
2022-11-04T01:03:05.374Z,989
2022-11-04T01:06:05.153Z,989
2022-11-04T01:09:05.186Z,989
2022-11-04T01:12:05.159Z,989
2022-11-04T01:15:05.134Z,989
2022-11-04T01:18:05.368Z,989
2022-11-04T01:21:05.117Z,989
2022-11-04T01:24:05.133Z,989
2022-11-04T01:27:05.094Z,989
2022-11-04T01:30:05.204Z,989
2022-11-04T01:33:05.148Z,989
2022-11-04T01:36:05.188Z,989
2022-11-04T01:39:05.144Z,989
2022-11-04T01:42:06.242Z,989
2022-11-04T01:45:05.189Z,989
2022-11-04T01:48:05.184Z,989
2022-11-04T01:51:05.151Z,990
2022-11-04T01:54:05.154Z,990
2022-11-04T01:57:05.119Z,990
2022-11-04T02:00:05.188Z,989
2022-11-04T02:03:05.203Z,989
2022-11-04T02:06:05.169Z,989
2022-11-04T02:09:05.329Z,989
2022-11-04T02:12:05.131Z,989
2022-11-04T02:15:05.135Z,989
2022-11-04T02:18:05.242Z,989
2022-11-04T02:21:05.234Z,989
2022-11-04T02:24:05.227Z,989
2022-11-04T02:27:05.222Z,989
2022-11-04T02:30:05.130Z,989
2022-11-04T02:33:05.156Z,989
2022-11-04T02:36:05.321Z,990
2022-11-04T02:39:05.251Z,990
2022-11-04T02:42:05.184Z,990
2022-11-04T02:45:05.146Z,990
2022-11-04T02:48:05.145Z,990
2022-11-04T02:51:05.128Z,990
2022-11-04T02:54:05.155Z,989
2022-11-04T02:57:05.125Z,989
2022-11-04T03:00:05.225Z,989
2022-11-04T03:03:05.293Z,989
2022-11-04T03:06:05.154Z,989
2022-11-04T03:09:05.176Z,989
2022-11-04T03:12:05.140Z,989
2022-11-04T03:15:05.156Z,989
2022-11-04T03:18:05.368Z,989
2022-11-04T03:21:05.782Z,989
2022-11-04T03:24:05.156Z,989
2022-11-04T03:27:05.183Z,989
2022-11-04T03:30:05.510Z,989
2022-11-04T03:33:05.158Z,989
2022-11-04T03:36:05.146Z,990
2022-11-04T03:39:05.129Z,990
2022-11-04T03:42:05.081Z,990
2022-11-04T03:45:05.131Z,990
2022-11-04T03:48:05.188Z,990
2022-11-04T03:51:05.157Z,990
2022-11-04T03:54:05.185Z,990
2022-11-04T03:57:05.206Z,990
2022-11-04T04:00:05.186Z,990
2022-11-04T04:03:05.180Z,990
2022-11-04T04:06:05.167Z,990
2022-11-04T04:09:05.123Z,990
2022-11-04T04:12:05.205Z,990
2022-11-04T04:15:05.144Z,990
2022-11-04T04:18:05.197Z,990
2022-11-04T04:21:05.123Z,990
2022-11-04T04:24:05.167Z,990
2022-11-04T04:27:05.142Z,991
2022-11-04T04:30:05.192Z,991
2022-11-04T04:33:05.151Z,991
2022-11-04T04:36:05.119Z,991
2022-11-04T04:39:05.171Z,991
2022-11-04T04:42:05.210Z,991
2022-11-04T04:45:05.854Z,991
2022-11-04T04:48:05.253Z,991
2022-11-04T04:51:05.174Z,991
2022-11-04T04:54:05.148Z,991
2022-11-04T04:57:05.135Z,991
2022-11-04T05:00:05.357Z,991
2022-11-04T05:03:05.244Z,991
2022-11-04T05:06:05.150Z,991
2022-11-04T05:09:05.131Z,991
2022-11-04T05:12:05.185Z,991
2022-11-04T05:15:05.230Z,991
2022-11-04T05:18:05.529Z,991
2022-11-04T05:21:05.164Z,991
2022-11-04T05:24:05.198Z,991
2022-11-04T05:27:05.130Z,991
2022-11-04T05:30:05.217Z,991
2022-11-04T05:33:10.616Z,991
2022-11-04T05:36:05.198Z,992
2022-11-04T05:39:05.192Z,991
2022-11-04T05:42:05.162Z,991
2022-11-04T05:45:05.157Z,991
2022-11-04T05:48:05.191Z,991
2022-11-04T05:51:05.139Z,991
2022-11-04T05:54:05.186Z,991
2022-11-04T05:57:05.197Z,991
2022-11-04T06:00:05.201Z,991
2022-11-04T06:03:05.484Z,991
2022-11-04T06:06:05.250Z,991
2022-11-04T06:09:05.208Z,992
2022-11-04T06:12:05.196Z,992
2022-11-04T06:15:05.301Z,992
2022-11-04T06:18:05.216Z,992
2022-11-04T06:21:05.137Z,992
2022-11-04T06:24:05.253Z,992
2022-11-04T06:27:05.325Z,992
2022-11-04T06:30:05.563Z,992
2022-11-04T06:33:05.151Z,992
2022-11-04T06:36:05.299Z,992
2022-11-04T06:39:09.625Z,992
2022-11-04T06:42:07.568Z,992
2022-11-04T06:45:05.465Z,992
2022-11-04T06:48:05.161Z,992
2022-11-04T06:51:05.076Z,992
2022-11-04T06:54:05.146Z,992
2022-11-04T06:57:05.165Z,992
2022-11-04T07:00:05.888Z,992
2022-11-04T07:03:05.191Z,992
2022-11-04T07:06:05.354Z,992
2022-11-04T07:09:05.193Z,992
2022-11-04T07:12:05.268Z,992
2022-11-04T07:15:05.179Z,992
2022-11-04T07:18:05.315Z,992
2022-11-04T07:21:13.193Z,992
2022-11-04T07:24:05.193Z,992
2022-11-04T07:30:05.342Z,992
2022-11-04T07:33:05.238Z,993
2022-11-04T07:36:05.195Z,993
2022-11-04T07:39:05.184Z,993
2022-11-04T07:42:05.240Z,993
2022-11-04T07:45:05.265Z,993
2022-11-04T07:48:05.221Z,993
2022-11-04T07:51:05.286Z,993
2022-11-04T07:54:05.239Z,993
2022-11-04T07:57:05.236Z,993
2022-11-04T08:00:05.450Z,993
2022-11-04T08:03:06.419Z,993
2022-11-04T08:06:05.321Z,993
2022-11-04T08:09:05.891Z,993
2022-11-04T08:12:05.162Z,993
2022-11-04T08:15:05.302Z,993
2022-11-04T08:18:05.227Z,993
2022-11-04T08:21:05.244Z,993
2022-11-04T08:24:05.404Z,993
2022-11-04T08:27:05.648Z,993
2022-11-04T08:30:05.366Z,994
2022-11-04T08:33:05.450Z,994
2022-11-04T08:36:05.297Z,993
2022-11-04T08:39:15.047Z,993
2022-11-04T08:42:06.751Z,993
2022-11-04T08:45:05.376Z,993
2022-11-04T08:48:11.197Z,993
2022-11-04T08:51:06.330Z,993
2022-11-04T08:54:05.260Z,993
2022-11-04T08:57:05.260Z,993
2022-11-04T09:00:05.345Z,993
2022-11-04T09:03:05.398Z,993
2022-11-04T09:06:05.317Z,993
2022-11-04T09:09:06.000Z,993
2022-11-04T09:12:05.291Z,993
2022-11-04T09:15:05.307Z,993
2022-11-04T09:18:05.244Z,993
2022-11-04T09:21:05.130Z,993
2022-11-04T09:24:05.373Z,993
2022-11-04T09:27:05.470Z,994
2022-11-04T09:30:05.388Z,994
2022-11-04T09:33:05.264Z,994
2022-11-04T09:36:05.328Z,994
2022-11-04T09:39:05.201Z,994
2022-11-04T09:42:05.412Z,994
2022-11-04T09:45:27.285Z,993
2022-11-04T09:48:05.308Z,993
2022-11-04T09:51:05.204Z,993
2022-11-04T09:54:05.246Z,993
2022-11-04T09:57:05.235Z,993
2022-11-04T10:00:05.294Z,993
2022-11-04T10:03:05.257Z,993
2022-11-04T10:06:05.257Z,993
2022-11-04T10:09:05.240Z,993
2022-11-04T10:12:05.273Z,993
2022-11-04T10:15:05.227Z,993
2022-11-04T10:18:05.304Z,994
2022-11-04T10:21:05.164Z,993
2022-11-04T10:24:05.277Z,993
2022-11-04T10:27:05.750Z,993
2022-11-04T10:30:05.336Z,993
2022-11-04T10:33:05.281Z,993
2022-11-04T10:39:05.247Z,993
2022-11-04T10:42:05.206Z,993
2022-11-04T10:45:05.197Z,993
2022-11-04T10:48:05.286Z,993
2022-11-04T10:51:05.300Z,993
2022-11-04T10:54:05.350Z,993
2022-11-04T10:57:05.512Z,993
2022-11-04T11:00:05.330Z,993
2022-11-04T11:03:05.214Z,993
2022-11-04T11:06:05.247Z,993
2022-11-04T11:09:05.212Z,993
2022-11-04T11:12:36.589Z,993
2022-11-04T11:15:05.204Z,994
2022-11-04T11:18:05.208Z,994
2022-11-04T11:21:05.191Z,994
2022-11-04T11:24:05.341Z,994
2022-11-04T11:27:05.179Z,994
2022-11-04T11:30:05.287Z,994
2022-11-04T11:33:05.237Z,994
2022-11-04T11:36:05.213Z,994
2022-11-04T11:39:05.188Z,994
2022-11-04T11:42:05.468Z,994
2022-11-04T11:45:05.216Z,994
2022-11-04T11:48:05.460Z,994
2022-11-04T11:51:05.193Z,994
2022-11-04T11:54:05.297Z,994
2022-11-04T11:57:27.405Z,994
2022-11-04T12:03:06.504Z,994
2022-11-04T12:09:27.641Z,994
2022-11-04T12:12:05.255Z,994
2022-11-04T12:18:05.267Z,994
2022-11-04T12:21:05.166Z,994
2022-11-04T12:24:05.290Z,994
2022-11-04T12:27:05.370Z,994
2022-11-04T12:30:05.381Z,994
2022-11-04T12:33:05.187Z,994
2022-11-04T12:36:05.296Z,994
2022-11-04T12:39:05.252Z,994
2022-11-04T12:42:34.701Z,994
2022-11-04T12:45:05.234Z,994
2022-11-04T12:48:05.281Z,994
2022-11-04T12:51:05.314Z,994
2022-11-04T12:54:05.309Z,994
2022-11-04T12:57:05.213Z,994
2022-11-04T13:00:05.867Z,994
2022-11-04T13:06:05.424Z,994
2022-11-04T13:09:05.848Z,994
2022-11-04T13:12:06.078Z,994
2022-11-04T13:15:05.570Z,994
2022-11-04T13:18:05.340Z,994
2022-11-04T13:21:07.645Z,994
2022-11-04T13:24:05.451Z,994
2022-11-04T13:27:05.452Z,994
2022-11-04T13:30:05.432Z,994
2022-11-04T13:33:05.641Z,994
2022-11-04T13:36:05.454Z,994
2022-11-04T13:39:05.339Z,994
2022-11-04T13:42:05.934Z,994
2022-11-04T13:45:05.413Z,994
2022-11-04T13:48:05.441Z,994
2022-11-04T13:51:05.436Z,994
2022-11-04T13:54:05.535Z,994
2022-11-04T13:57:06.004Z,995
2022-11-04T14:00:05.458Z,994
2022-11-04T14:03:05.529Z,994
2022-11-04T14:06:05.463Z,994
2022-11-04T14:09:05.431Z,995
2022-11-04T14:12:05.382Z,995
2022-11-04T14:15:05.611Z,995
2022-11-04T14:18:09.156Z,995
2022-11-04T14:21:05.324Z,995
2022-11-04T14:24:05.336Z,995
2022-11-04T14:27:05.432Z,995
2022-11-04T14:30:05.695Z,995
2022-11-04T14:33:05.421Z,995
2022-11-04T14:36:05.488Z,995
2022-11-04T14:39:05.579Z,995
2022-11-04T14:42:05.576Z,995
2022-11-04T14:45:05.380Z,995
2022-11-04T14:48:05.352Z,995
2022-11-04T14:51:05.442Z,995
2022-11-04T14:54:05.531Z,995
2022-11-04T14:57:05.286Z,996
2022-11-04T15:00:05.671Z,996
2022-11-04T15:03:05.243Z,996
2022-11-04T15:06:05.389Z,996
2022-11-04T15:09:05.406Z,996
2022-11-04T15:12:05.473Z,996
2022-11-04T15:15:05.373Z,996
2022-11-04T15:18:05.465Z,996
2022-11-04T15:21:05.429Z,996
2022-11-04T15:24:05.615Z,995
2022-11-04T15:27:05.676Z,995
2022-11-04T15:30:05.702Z,995
2022-11-04T15:33:05.480Z,995
2022-11-04T15:36:05.347Z,995
2022-11-04T15:39:05.521Z,995
2022-11-04T15:42:05.409Z,995
2022-11-04T15:45:05.391Z,995
2022-11-04T15:48:05.221Z,995
2022-11-04T15:51:05.292Z,995
2022-11-04T15:54:05.247Z,995
2022-11-04T15:57:05.386Z,996
2022-11-04T16:00:05.495Z,996
2022-11-04T16:03:05.202Z,996
2022-11-04T16:06:05.266Z,996
2022-11-04T16:09:05.392Z,996
2022-11-04T16:12:05.315Z,996
2022-11-04T16:15:05.395Z,996
2022-11-04T16:18:05.300Z,996
2022-11-04T16:21:05.330Z,996
2022-11-04T16:24:05.350Z,996
2022-11-04T16:27:05.393Z,996
2022-11-04T16:30:05.478Z,996
2022-11-04T16:33:05.299Z,996
2022-11-04T16:36:05.310Z,996
2022-11-04T16:39:05.463Z,996
2022-11-04T16:42:05.418Z,996
2022-11-04T16:45:05.377Z,996
2022-11-04T16:48:05.283Z,997
2022-11-04T16:51:05.501Z,996
2022-11-04T16:54:05.320Z,996
2022-11-04T16:57:05.262Z,996
2022-11-04T17:00:05.338Z,996
2022-11-04T17:03:05.158Z,996
2022-11-04T17:06:05.305Z,996
2022-11-04T17:09:05.346Z,996
2022-11-04T17:12:05.283Z,996
2022-11-04T17:15:05.294Z,996
2022-11-04T17:18:05.276Z,996
2022-11-04T17:21:05.312Z,996
2022-11-04T17:24:05.358Z,996
2022-11-04T17:27:05.278Z,996
2022-11-04T17:30:05.303Z,996
2022-11-04T17:33:05.298Z,996
2022-11-04T17:36:12.389Z,996
2022-11-04T17:39:05.401Z,997
2022-11-04T17:42:05.297Z,997
2022-11-04T17:45:05.466Z,997
2022-11-04T17:48:05.330Z,997
2022-11-04T17:51:05.267Z,997
2022-11-04T17:54:05.721Z,997
2022-11-04T17:57:05.284Z,997
2022-11-04T18:00:05.406Z,997
2022-11-04T18:03:05.197Z,997
2022-11-04T18:06:05.261Z,997
2022-11-04T18:09:05.291Z,997
2022-11-04T18:12:05.443Z,997
2022-11-04T18:15:05.256Z,997
2022-11-04T18:18:05.269Z,997
2022-11-04T18:21:05.258Z,997
2022-11-04T18:24:05.247Z,997
2022-11-04T18:27:05.278Z,997
2022-11-04T18:30:05.442Z,997
2022-11-04T18:33:05.269Z,997
2022-11-04T18:36:05.314Z,997
2022-11-04T18:39:05.462Z,998
2022-11-04T18:42:05.454Z,998
2022-11-04T18:45:05.379Z,998
2022-11-04T18:48:05.304Z,997
2022-11-04T18:51:05.460Z,997
2022-11-04T18:54:05.395Z,997
2022-11-04T18:57:05.298Z,997
2022-11-04T19:00:05.481Z,997
2022-11-04T19:03:05.154Z,997
2022-11-04T19:06:05.497Z,997
2022-11-04T19:09:49.984Z,997
2022-11-04T19:12:05.454Z,997
2022-11-04T19:15:05.317Z,997
2022-11-04T19:18:05.262Z,997
2022-11-04T19:21:05.356Z,997
2022-11-04T19:24:05.453Z,997
2022-11-04T19:30:05.245Z,997
2022-11-04T19:33:05.190Z,998
2022-11-04T19:36:05.617Z,998
2022-11-04T19:39:05.180Z,998
2022-11-04T19:42:05.224Z,998
2022-11-04T19:45:05.198Z,998
2022-11-04T19:48:05.270Z,998
2022-11-04T19:51:05.127Z,998
2022-11-04T19:54:05.350Z,998
2022-11-04T19:57:05.132Z,998
2022-11-04T20:00:05.234Z,998
2022-11-04T20:03:05.145Z,998
2022-11-04T20:06:05.240Z,998
2022-11-04T20:09:05.414Z,998
2022-11-04T20:12:05.178Z,998
2022-11-04T20:15:05.133Z,998
2022-11-04T20:18:05.697Z,998
2022-11-04T20:21:05.095Z,998
2022-11-04T20:24:05.176Z,998
2022-11-04T20:27:05.177Z,998
2022-11-04T20:30:05.207Z,998
2022-11-04T20:33:05.165Z,999
2022-11-04T20:36:05.221Z,999
2022-11-04T20:39:05.101Z,999
2022-11-04T20:42:05.179Z,999
2022-11-04T20:45:05.213Z,999
2022-11-04T20:48:05.148Z,999
2022-11-04T20:51:05.114Z,999
2022-11-04T20:54:05.410Z,999
2022-11-04T20:57:05.162Z,999
2022-11-04T21:00:05.225Z,999
2022-11-04T21:03:05.145Z,999
2022-11-04T21:06:05.181Z,999
2022-11-04T21:09:05.114Z,998
2022-11-04T21:12:05.115Z,998
2022-11-04T21:15:05.408Z,998
2022-11-04T21:18:05.100Z,998
2022-11-04T21:21:05.856Z,998
2022-11-04T21:24:05.128Z,998
2022-11-04T21:27:05.202Z,999
2022-11-04T21:30:05.167Z,999
2022-11-04T21:33:05.180Z,999
2022-11-04T21:36:05.190Z,999
2022-11-04T21:39:05.134Z,999
2022-11-04T21:42:05.250Z,999
2022-11-04T21:45:05.424Z,999
2022-11-04T21:48:05.117Z,999
2022-11-04T21:51:05.121Z,999
2022-11-04T21:54:05.179Z,999
2022-11-04T21:57:05.163Z,999
2022-11-04T22:00:05.245Z,999
2022-11-04T22:03:05.168Z,999
2022-11-04T22:06:05.164Z,999
2022-11-04T22:09:05.159Z,999
2022-11-04T22:12:05.213Z,999
2022-11-04T22:15:05.130Z,999
2022-11-04T22:18:05.172Z,1000
2022-11-04T22:21:05.082Z,1000
2022-11-04T22:24:05.172Z,1000
2022-11-04T22:27:05.545Z,1000
2022-11-04T22:30:05.177Z,1000
2022-11-04T22:33:05.124Z,1000
2022-11-04T22:36:05.163Z,1000
2022-11-04T22:39:05.153Z,1000
2022-11-04T22:42:05.146Z,1000
2022-11-04T22:45:05.135Z,1000
2022-11-04T22:48:05.094Z,999
2022-11-04T22:51:05.109Z,999
2022-11-04T22:54:13.295Z,999
2022-11-04T22:57:05.113Z,999
2022-11-04T23:00:05.640Z,999
2022-11-04T23:03:06.041Z,999
2022-11-04T23:06:05.156Z,999
2022-11-04T23:09:05.853Z,999
2022-11-04T23:12:05.172Z,1000
2022-11-04T23:15:05.177Z,1000
2022-11-04T23:18:05.143Z,1000
2022-11-04T23:21:05.109Z,1000
2022-11-04T23:24:05.095Z,1000
2022-11-04T23:27:05.156Z,1000
2022-11-04T23:30:05.169Z,1000
2022-11-04T23:33:05.095Z,1000
2022-11-04T23:36:05.159Z,1000
2022-11-04T23:39:05.112Z,1000
2022-11-04T23:42:05.169Z,1000
2022-11-04T23:45:05.108Z,1000
2022-11-04T23:48:05.567Z,1000
2022-11-04T23:51:05.166Z,1000
2022-11-04T23:54:05.181Z,1000
2022-11-04T23:57:05.156Z,1000
